createdAt,value
2022-12-23T00:01:30.953Z,100521.75
2022-12-23T00:04:02.352Z,100516.97
2022-12-23T00:06:32.860Z,100517.31
2022-12-23T00:09:03.614Z,100519.31
2022-12-23T00:11:34.137Z,100519.69
2022-12-23T00:14:22.522Z,100520.88
2022-12-23T00:16:52.854Z,100518.41
2022-12-23T00:19:22.803Z,100521.19
2022-12-23T00:21:53.125Z,100516.75
2022-12-23T00:24:22.967Z,100526.00
2022-12-23T00:26:53.215Z,100531.63
2022-12-23T00:29:25.758Z,100525.56
2022-12-23T00:31:56.160Z,100523.94
2022-12-23T00:34:26.628Z,100524.75
2022-12-23T00:36:57.068Z,100530.72
2022-12-23T00:39:43.855Z,100527.00
2022-12-23T00:42:30.711Z,100527.25
2022-12-23T00:45:16.154Z,100531.13
2022-12-23T00:48:15.964Z,100526.59
2022-12-23T00:50:46.494Z,100531.28
2022-12-23T00:53:16.537Z,100528.88
2022-12-23T00:55:49.084Z,100528.06
2022-12-23T00:58:19.875Z,100523.63
2022-12-23T01:01:08.991Z,100518.00
2022-12-23T01:03:55.692Z,100513.13
2022-12-23T01:06:25.897Z,100510.22
2022-12-23T01:08:56.215Z,100508.59
2022-12-23T01:11:26.330Z,100512.56
2022-12-23T01:13:56.684Z,100511.69
2022-12-23T01:16:29.263Z,100501.97
2022-12-23T01:18:59.685Z,100507.56
2022-12-23T01:21:30.080Z,100501.50
2022-12-23T01:24:00.580Z,100509.59
2022-12-23T01:26:31.222Z,100502.81
2022-12-23T01:29:02.054Z,100502.34
2022-12-23T01:31:34.322Z,100499.91
2022-12-23T01:34:04.717Z,100503.06
2022-12-23T01:36:34.648Z,100502.97
2022-12-23T01:39:05.230Z,100505.69
2022-12-23T01:41:53.340Z,100502.78
2022-12-23T01:44:58.030Z,100511.44
2022-12-23T01:47:39.134Z,100509.38
2022-12-23T01:50:19.720Z,100516.16
2022-12-23T01:53:02.939Z,100513.25
2022-12-23T01:55:43.752Z,100514.75
2022-12-23T01:58:20.168Z,100507.88
2022-12-23T02:01:07.746Z,100508.22
2022-12-23T02:03:45.890Z,100501.31
2022-12-23T02:06:40.881Z,100507.75
2022-12-23T02:09:19.651Z,100505.31
2022-12-23T02:12:39.368Z,100500.44
2022-12-23T02:15:51.658Z,100503.59
2022-12-23T02:18:57.265Z,100495.53
2022-12-23T02:21:59.203Z,100489.91
2022-12-23T02:25:38.299Z,100493.09
2022-12-23T02:28:43.282Z,100491.09
2022-12-23T02:31:26.928Z,100493.56
2022-12-23T02:34:06.660Z,100501.22
2022-12-23T02:36:47.014Z,100490.84
2022-12-23T02:39:32.699Z,100490.47
2022-12-23T02:42:11.949Z,100487.78
2022-12-23T02:44:50.933Z,100480.19
2022-12-23T02:47:30.037Z,100475.09
2022-12-23T02:50:08.168Z,100477.53
2022-12-23T02:52:42.494Z,100479.16
2022-12-23T02:55:19.985Z,100485.56
2022-12-23T02:57:55.525Z,100490.38
2022-12-23T03:00:26.263Z,100495.88
2022-12-23T03:02:58.784Z,100484.88
2022-12-23T03:05:35.956Z,100490.38
2022-12-23T03:08:14.219Z,100495.19
2022-12-23T03:11:05.062Z,100492.72
2022-12-23T03:13:57.894Z,100495.06
2022-12-23T03:16:37.141Z,100491.00
2022-12-23T03:19:23.252Z,100491.38
2022-12-23T03:22:08.453Z,100496.97
2022-12-23T03:24:49.761Z,100494.97
2022-12-23T03:27:29.799Z,100499.41
2022-12-23T03:30:06.288Z,100497.78
2022-12-23T03:32:43.045Z,100497.44
2022-12-23T03:35:20.224Z,100500.25
2022-12-23T03:37:55.350Z,100499.88
2022-12-23T03:40:30.602Z,100498.69
2022-12-23T03:43:06.948Z,100505.56
2022-12-23T03:45:44.163Z,100510.00
2022-12-23T03:48:25.179Z,100509.63
2022-12-23T03:51:03.721Z,100512.09
2022-12-23T03:53:39.696Z,100519.34
2022-12-23T03:56:16.512Z,100518.13
2022-12-23T03:58:55.043Z,100514.16
2022-12-23T04:01:39.268Z,100514.16
2022-12-23T04:04:17.571Z,100526.22
2022-12-23T04:07:01.937Z,100526.22
2022-12-23T04:09:32.123Z,100523.75
2022-12-23T04:12:02.753Z,100525.75
2022-12-23T04:14:36.983Z,100537.31
2022-12-23T04:17:07.279Z,100532.06
2022-12-23T04:19:36.851Z,100540.47
2022-12-23T04:22:08.625Z,100546.44
2022-12-23T04:24:38.505Z,100541.19
2022-12-23T04:27:09.845Z,100548.78
2022-12-23T04:29:40.141Z,100545.16
2022-12-23T04:32:11.635Z,100550.78
2022-12-23T04:34:41.890Z,100549.94
2022-12-23T04:37:14.008Z,100552.75
2022-12-23T04:39:44.497Z,100552.31
2022-12-23T04:42:14.882Z,100554.28
2022-12-23T04:44:45.279Z,100564.69
2022-12-23T04:47:15.681Z,100567.50
2022-12-23T04:49:46.044Z,100564.69
2022-12-23T04:52:17.966Z,100573.09
2022-12-23T04:54:48.169Z,100582.31
2022-12-23T04:57:19.302Z,100575.53
2022-12-23T04:59:49.612Z,100583.94
2022-12-23T05:02:20.420Z,100583.13
2022-12-23T05:04:50.258Z,100583.13
2022-12-23T05:07:22.585Z,100580.78
2022-12-23T05:09:52.576Z,100571.56
2022-12-23T05:12:23.096Z,100576.81
2022-12-23T05:14:53.537Z,100581.25
2022-12-23T05:17:23.739Z,100584.88
2022-12-23T05:19:53.594Z,100597.34
2022-12-23T05:22:26.138Z,100591.38
2022-12-23T05:24:56.739Z,100589.41
2022-12-23T05:27:26.426Z,100590.22
2022-12-23T05:29:56.476Z,100595.44
2022-12-23T05:32:26.957Z,100599.88
2022-12-23T05:34:57.063Z,100597.91
2022-12-23T05:37:29.424Z,100603.19
2022-12-23T05:39:59.876Z,100605.63
2022-12-23T05:42:30.380Z,100603.66
2022-12-23T05:45:00.396Z,100597.22
2022-12-23T05:47:30.213Z,100607.25
2022-12-23T05:50:00.795Z,100602.13
2022-12-23T05:52:32.445Z,100602.97
2022-12-23T05:55:02.141Z,100604.94
2022-12-23T05:57:32.753Z,100612.16
2022-12-23T06:00:02.724Z,100614.59
2022-12-23T06:02:32.948Z,100621.50
2022-12-23T06:05:03.479Z,100623.16
2022-12-23T06:07:36.261Z,100620.78
2022-12-23T06:10:07.068Z,100626.06
2022-12-23T06:12:37.871Z,100630.13
2022-12-23T06:15:09.787Z,100638.16
2022-12-23T06:17:39.974Z,100630.22
2022-12-23T06:20:19.612Z,100629.06
2022-12-23T06:22:51.990Z,100638.41
2022-12-23T06:25:22.340Z,100626.81
2022-12-23T06:27:52.574Z,100638.50
2022-12-23T06:30:23.188Z,100639.75
2022-12-23T06:32:53.337Z,100639.38
2022-12-23T06:35:23.485Z,100639.06
2022-12-23T06:37:55.877Z,100648.28
2022-12-23T06:40:26.165Z,100654.34
2022-12-23T06:42:56.649Z,100652.34
2022-12-23T06:45:26.979Z,100659.25
2022-12-23T06:47:57.496Z,100662.84
2022-12-23T06:50:27.515Z,100668.47
2022-12-23T06:52:59.401Z,100678.16
2022-12-23T06:55:29.319Z,100676.66
2022-12-23T06:57:59.736Z,100679.88
2022-12-23T07:00:29.656Z,100676.00
2022-12-23T07:03:00.329Z,100668.88
2022-12-23T07:05:37.068Z,100678.19
2022-12-23T07:08:10.161Z,100676.66
2022-12-23T07:10:39.717Z,100679.94
2022-12-23T07:13:10.227Z,100678.06
2022-12-23T07:15:41.141Z,100678.16
2022-12-23T07:18:11.255Z,100677.09
2022-12-23T07:20:41.950Z,100673.13
2022-12-23T07:23:14.799Z,100665.16
2022-12-23T07:25:45.098Z,100670.41
2022-12-23T07:28:15.036Z,100673.69
2022-12-23T07:30:45.087Z,100676.94
2022-12-23T07:33:15.113Z,100670.50
2022-12-23T07:35:45.312Z,100668.97
2022-12-23T07:38:17.177Z,100665.06
2022-12-23T07:40:51.302Z,100663.09
2022-12-23T07:43:21.516Z,100662.38
2022-12-23T07:45:59.154Z,100656.50
2022-12-23T07:48:30.592Z,100660.69
2022-12-23T07:51:03.717Z,100666.94
2022-12-23T07:53:36.147Z,100668.00
2022-12-23T07:56:07.619Z,100668.38
2022-12-23T07:58:38.035Z,100670.81
2022-12-23T08:01:10.285Z,100662.81
2022-12-23T08:03:40.359Z,100668.03
2022-12-23T08:06:13.788Z,100674.44
2022-12-23T08:08:48.713Z,100679.22
2022-12-23T08:11:19.660Z,100686.81
2022-12-23T08:13:50.744Z,100677.38
2022-12-23T08:16:21.511Z,100680.41
2022-12-23T08:18:52.081Z,100684.19
2022-12-23T08:21:22.685Z,100687.13
2022-12-23T08:23:55.162Z,100683.69
2022-12-23T08:26:27.491Z,100675.00
2022-12-23T08:28:57.808Z,100673.94
2022-12-23T08:31:30.360Z,100673.72
2022-12-23T08:34:02.410Z,100674.34
2022-12-23T08:36:36.006Z,100662.94
2022-12-23T08:39:13.355Z,100658.50
2022-12-23T08:41:48.528Z,100661.63
2022-12-23T08:44:20.057Z,100654.63
2022-12-23T08:46:51.308Z,100651.66
2022-12-23T08:49:21.950Z,100655.44
2022-12-23T08:51:52.180Z,100650.72
2022-12-23T08:54:24.208Z,100647.22
2022-12-23T08:56:53.932Z,100649.75
2022-12-23T08:59:24.323Z,100652.31
2022-12-23T09:01:54.851Z,100646.28
2022-12-23T09:04:25.445Z,100642.34
2022-12-23T09:06:55.258Z,100643.19
2022-12-23T09:09:26.684Z,100635.03
2022-12-23T09:11:57.232Z,100640.66
2022-12-23T09:14:27.548Z,100636.59
2022-12-23T09:16:57.446Z,100628.88
2022-12-23T09:19:27.237Z,100629.59
2022-12-23T09:21:57.674Z,100629.50
2022-12-23T09:24:29.527Z,100620.13
2022-12-23T09:26:59.615Z,100621.22
2022-12-23T09:29:30.431Z,100615.53
2022-12-23T09:32:00.473Z,100607.03
2022-12-23T09:34:31.373Z,100611.84
2022-12-23T09:37:01.718Z,100609.06
2022-12-23T09:39:33.920Z,100607.13
2022-12-23T09:42:15.442Z,100606.34
2022-12-23T09:45:17.791Z,100601.50
2022-12-23T09:47:48.567Z,100606.72
2022-12-23T09:50:28.535Z,100598.59
2022-12-23T09:53:06.648Z,100600.94
2022-12-23T09:55:51.448Z,100599.69
2022-12-23T09:58:31.609Z,100598.41
2022-12-23T10:01:21.650Z,100603.19
2022-12-23T10:04:27.279Z,100604.75
2022-12-23T10:07:28.418Z,100607.50
2022-12-23T10:10:08.824Z,100605.03
2022-12-23T10:12:47.357Z,100600.16
2022-12-23T10:15:28.568Z,100592.44
2022-12-23T10:18:05.119Z,100587.19
2022-12-23T10:20:50.180Z,100586.41
2022-12-23T10:23:30.545Z,100583.94
2022-12-23T10:26:00.993Z,100579.50
2022-12-23T10:28:32.870Z,100587.16
2022-12-23T10:34:14.231Z,100581.91
2022-12-23T10:37:00.526Z,100580.28
2022-12-23T10:39:43.861Z,100580.63
2022-12-23T10:42:28.205Z,100581.84
2022-12-23T10:45:45.258Z,100572.97
2022-12-23T10:48:39.255Z,100582.97
2022-12-23T10:51:20.346Z,100584.56
2022-12-23T10:53:57.155Z,100585.34
2022-12-23T10:56:27.627Z,100590.53
2022-12-23T10:59:01.831Z,100588.91
2022-12-23T11:01:36.641Z,100577.63
2022-12-23T11:04:12.132Z,100580.81
2022-12-23T11:06:48.057Z,100593.31
2022-12-23T11:09:25.929Z,100583.22
2022-12-23T11:12:02.478Z,100579.56
2022-12-23T11:14:39.744Z,100575.13
2022-12-23T11:17:25.813Z,100581.94
2022-12-23T11:20:15.782Z,100576.69
2022-12-23T11:22:52.357Z,100583.09
2022-12-23T11:25:33.466Z,100566.97
2022-12-23T11:28:10.255Z,100577.78
2022-12-23T11:30:56.614Z,100574.16
2022-12-23T11:33:33.182Z,100570.09
2022-12-23T11:36:08.005Z,100574.09
2022-12-23T11:38:49.712Z,100570.84
2022-12-23T11:41:26.113Z,100564.75
2022-12-23T11:44:03.527Z,100573.22
2022-12-23T11:46:37.076Z,100576.03
2022-12-23T11:49:25.790Z,100570.41
2022-12-23T11:52:13.631Z,100567.94
2022-12-23T11:54:54.617Z,100578.78
2022-12-23T11:57:34.126Z,100577.53
2022-12-23T12:00:08.453Z,100583.56
2022-12-23T12:02:45.960Z,100589.19
2022-12-23T12:05:30.825Z,100587.56
2022-12-23T12:08:06.195Z,100590.75
2022-12-23T12:10:40.673Z,100589.94
2022-12-23T12:13:28.512Z,100597.16
2022-12-23T12:16:19.016Z,100591.06
2022-12-23T12:18:55.706Z,100594.66
2022-12-23T12:21:33.802Z,100601.47
2022-12-23T12:24:19.236Z,100595.75
2022-12-23T12:26:54.890Z,100596.53
2022-12-23T12:29:34.720Z,100598.53
2022-12-23T12:32:07.199Z,100604.53
2022-12-23T12:34:52.161Z,100598.09
2022-12-23T12:37:38.285Z,100606.91
2022-12-23T12:40:26.840Z,100599.66
2022-12-23T12:43:06.910Z,100597.22
2022-12-23T12:45:48.419Z,100595.19
2022-12-23T12:48:43.311Z,100597.59
2022-12-23T12:51:27.715Z,100596.78
2022-12-23T12:54:17.049Z,100595.53
2022-12-23T12:56:52.626Z,100600.72
2022-12-23T12:59:28.204Z,100598.75
2022-12-23T13:02:39.632Z,100600.66
2022-12-23T13:05:53.339Z,100604.66
2022-12-23T13:08:46.374Z,100604.22
2022-12-23T13:11:31.462Z,100610.25
2022-12-23T13:14:15.016Z,100604.59
2022-12-23T13:16:55.726Z,100613.44
2022-12-23T13:19:41.560Z,100609.34
2022-12-23T13:22:16.913Z,100614.19
2022-12-23T13:25:04.167Z,100609.28
2022-12-23T13:27:45.599Z,100622.56
2022-12-23T13:30:18.325Z,100612.03
2022-12-23T13:33:14.144Z,100607.59
2022-12-23T13:36:07.584Z,100605.50
2022-12-23T13:39:08.329Z,100607.06
2022-12-23T13:41:46.569Z,100611.06
2022-12-23T13:44:20.584Z,100615.88
2022-12-23T13:47:02.020Z,100619.09
2022-12-23T13:49:54.148Z,100621.91
2022-12-23T13:52:43.258Z,100620.28
2022-12-23T13:55:34.192Z,100621.81
2022-12-23T13:58:15.031Z,100629.44
2022-12-23T14:00:47.218Z,100624.22
2022-12-23T14:03:26.692Z,100631.81
2022-12-23T14:05:56.730Z,100637.00
2022-12-23T14:08:36.002Z,100644.66
2022-12-23T14:11:18.422Z,100638.56
2022-12-23T14:13:57.648Z,100652.19
2022-12-23T14:16:49.053Z,100654.56
2022-12-23T14:19:46.155Z,100652.50
2022-12-23T14:22:55.959Z,100652.44
2022-12-23T14:26:02.896Z,100655.97
2022-12-23T14:29:08.961Z,100652.72
2022-12-23T14:31:46.433Z,100650.28
2022-12-23T14:34:33.214Z,100661.91
2022-12-23T14:37:38.410Z,100664.63
2022-12-23T14:40:59.891Z,100661.75
2022-12-23T14:43:56.120Z,100669.75
2022-12-23T14:46:59.874Z,100671.31
2022-12-23T14:49:48.049Z,100668.88
2022-12-23T14:53:01.612Z,100667.97
2022-12-23T14:55:53.368Z,100663.53
2022-12-23T14:59:02.075Z,100676.72
2022-12-23T15:01:41.248Z,100691.13
2022-12-23T15:04:21.249Z,100679.06
2022-12-23T15:06:57.041Z,100684.25
2022-12-23T15:09:30.471Z,100691.88
2022-12-23T15:12:04.484Z,100693.06
2022-12-23T15:14:40.997Z,100696.22
2022-12-23T15:17:20.435Z,100697.44
2022-12-23T15:19:52.767Z,100694.13
2022-12-23T15:22:30.295Z,100700.09
2022-12-23T15:25:02.235Z,100700.84
2022-12-23T15:27:37.821Z,100709.66
2022-12-23T15:30:13.880Z,100711.19
2022-12-23T15:32:47.885Z,100707.94
2022-12-23T15:35:27.691Z,100718.72
2022-12-23T15:37:59.316Z,100721.09
2022-12-23T15:40:34.464Z,100730.28
2022-12-23T15:43:05.902Z,100730.66
2022-12-23T15:45:40.176Z,100735.44
2022-12-23T15:48:27.341Z,100744.97
2022-12-23T15:51:06.393Z,100747.69
2022-12-23T15:53:41.448Z,100750.41
2022-12-23T15:56:23.098Z,100753.16
2022-12-23T15:58:54.429Z,100760.66
2022-12-23T16:01:26.856Z,100765.03
2022-12-23T16:04:00.695Z,100758.94
2022-12-23T16:06:36.397Z,100762.47
2022-12-23T16:09:25.366Z,100768.47
2022-12-23T16:11:59.683Z,100768.84
2022-12-23T16:14:41.423Z,100773.16
2022-12-23T16:17:27.515Z,100763.84
2022-12-23T16:20:21.073Z,100767.38
2022-12-23T16:22:55.133Z,100772.53
2022-12-23T16:25:29.164Z,100774.06
2022-12-23T16:28:05.193Z,100775.63
2022-12-23T16:30:37.683Z,100783.09
2022-12-23T16:33:23.307Z,100780.19
2022-12-23T16:35:55.647Z,100789.31
2022-12-23T16:38:29.633Z,100788.06
2022-12-23T16:41:00.321Z,100797.19
2022-12-23T16:43:30.721Z,100795.94
2022-12-23T16:46:01.570Z,100796.53
2022-12-23T16:48:35.956Z,100796.44
2022-12-23T16:51:10.530Z,100801.50
2022-12-23T16:53:42.235Z,100807.03
2022-12-23T16:56:15.837Z,100802.94
2022-12-23T16:58:47.408Z,100814.53
2022-12-23T17:01:23.895Z,100803.66
2022-12-23T17:03:56.377Z,100813.63
2022-12-23T17:06:27.577Z,100805.44
2022-12-23T17:08:59.522Z,100799.28
2022-12-23T17:11:39.784Z,100807.13
2022-12-23T17:14:16.984Z,100806.19
2022-12-23T17:16:48.356Z,100808.53
2022-12-23T17:19:27.185Z,100808.91
2022-12-23T17:22:04.973Z,100810.41
2022-12-23T17:24:37.395Z,100814.38
2022-12-23T17:27:17.500Z,100821.50
2022-12-23T17:29:47.471Z,100821.41
2022-12-23T17:32:20.682Z,100821.28
2022-12-23T17:34:50.464Z,100823.53
2022-12-23T17:37:23.410Z,100826.22
2022-12-23T17:39:55.015Z,100822.94
2022-12-23T17:42:26.398Z,100824.47
2022-12-23T17:44:56.797Z,100815.97
2022-12-23T17:47:26.931Z,100825.53
2022-12-23T17:49:57.421Z,100823.91
2022-12-23T17:52:28.832Z,100818.66
2022-12-23T17:55:01.552Z,100810.94
2022-12-23T17:57:33.361Z,100816.44
2022-12-23T18:00:03.385Z,100810.72
2022-12-23T18:02:35.949Z,100814.69
2022-12-23T18:05:23.228Z,100813.75
2022-12-23T18:07:54.548Z,100810.47
2022-12-23T18:10:31.082Z,100810.47
2022-12-23T18:13:04.477Z,100809.69
2022-12-23T18:15:38.991Z,100809.31
2022-12-23T18:18:22.325Z,100808.97
2022-12-23T18:21:00.482Z,100803.72
2022-12-23T18:23:34.475Z,100803.72
2022-12-23T18:26:06.611Z,100803.72
2022-12-23T18:28:36.677Z,100798.94
2022-12-23T18:31:07.160Z,100803.38
2022-12-23T18:33:37.620Z,100811.41
2022-12-23T18:36:08.546Z,100808.63
2022-12-23T18:38:38.841Z,100807.44
2022-12-23T18:41:14.726Z,100813.53
2022-12-23T18:43:45.934Z,100815.16
2022-12-23T18:46:16.072Z,100820.41
2022-12-23T18:48:45.915Z,100821.69
2022-12-23T18:51:18.625Z,100816.91
2022-12-23T18:53:49.128Z,100828.13
2022-12-23T18:56:23.104Z,100821.34
2022-12-23T18:58:53.199Z,100828.59
2022-12-23T19:01:23.437Z,100827.41
2022-12-23T19:03:53.903Z,100829.88
2022-12-23T19:06:24.205Z,100829.03
2022-12-23T19:08:54.134Z,100840.63
2022-12-23T19:11:26.500Z,100836.19
2022-12-23T19:13:56.854Z,100830.94
2022-12-23T19:16:27.548Z,100828.47
2022-12-23T19:18:57.343Z,100834.44
2022-12-23T19:21:27.238Z,100843.66
2022-12-23T19:23:58.583Z,100844.84
2022-12-23T19:26:30.946Z,100842.06
2022-12-23T19:29:01.384Z,100851.16
2022-12-23T19:31:34.447Z,100847.41
2022-12-23T19:34:08.208Z,100849.75
2022-12-23T19:36:43.071Z,100852.91
2022-12-23T19:39:17.081Z,100849.28
2022-12-23T19:41:50.179Z,100852.44
2022-12-23T19:44:20.351Z,100858.75
2022-12-23T19:46:52.090Z,100855.47
2022-12-23T19:49:22.141Z,100858.97
2022-12-23T19:51:52.338Z,100845.66
2022-12-23T19:54:22.625Z,100853.63
2022-12-23T19:56:55.076Z,100858.28
2022-12-23T19:59:25.208Z,100848.09
2022-12-23T20:01:56.311Z,100850.78
2022-12-23T20:04:26.730Z,100850.66
2022-12-23T20:06:56.637Z,100849.38
2022-12-23T20:09:26.399Z,100840.97
2022-12-23T20:11:57.678Z,100851.81
2022-12-23T20:14:32.066Z,100845.84
2022-12-23T20:17:04.080Z,100844.69
2022-12-23T20:19:36.928Z,100847.97
2022-12-23T20:22:09.100Z,100853.56
2022-12-23T20:24:39.585Z,100857.28
2022-12-23T20:27:14.829Z,100854.66
2022-12-23T20:29:45.817Z,100853.94
2022-12-23T20:32:15.955Z,100860.88
2022-12-23T20:34:46.834Z,100866.09
2022-12-23T20:37:16.542Z,100859.34
2022-12-23T20:39:47.189Z,100856.53
2022-12-23T20:42:19.069Z,100850.47
2022-12-23T20:44:49.412Z,100848.81
2022-12-23T20:47:19.621Z,100849.97
2022-12-23T20:49:49.497Z,100850.81
2022-12-23T20:52:19.326Z,100850.81
2022-12-23T20:54:49.688Z,100846.84
2022-12-23T20:57:22.161Z,100840.03
2022-12-23T20:59:52.883Z,100836.06
2022-12-23T21:02:23.401Z,100834.09
2022-12-23T21:04:53.165Z,100835.75
2022-12-23T21:07:22.845Z,100832.94
2022-12-23T21:09:52.964Z,100826.16
2022-12-23T21:12:25.272Z,100832.59
2022-12-23T21:14:55.445Z,100831.78
2022-12-23T21:17:26.344Z,100828.13
2022-12-23T21:19:58.327Z,100824.53
2022-12-23T21:22:29.810Z,100823.69
2022-12-23T21:25:00.041Z,100820.91
2022-12-23T21:27:32.484Z,100823.22
2022-12-23T21:30:02.679Z,100817.97
2022-12-23T21:32:32.834Z,100826.75
2022-12-23T21:35:03.529Z,100820.66
2022-12-23T21:37:34.793Z,100820.66
2022-12-23T21:40:05.230Z,100822.66
2022-12-23T21:42:37.496Z,100818.22
2022-12-23T21:45:09.315Z,100820.16
2022-12-23T21:47:39.679Z,100814.56
2022-12-23T21:50:12.191Z,100812.91
2022-12-23T21:52:42.527Z,100814.91
2022-12-23T21:55:16.078Z,100809.31
2022-12-23T21:57:47.649Z,100812.63
2022-12-23T22:00:18.702Z,100811.75
2022-12-23T22:02:48.390Z,100810.13
2022-12-23T22:05:18.991Z,100818.88
2022-12-23T22:07:48.633Z,100812.81
2022-12-23T22:10:19.400Z,100812.00
2022-12-23T22:12:51.806Z,100826.03
2022-12-23T22:15:22.023Z,100828.81
2022-12-23T22:17:52.036Z,100809.88
2022-12-23T22:20:22.862Z,100821.09
2022-12-23T22:22:53.202Z,100809.09
2022-12-23T22:25:23.846Z,100823.09
2022-12-23T22:27:55.676Z,100820.63
2022-12-23T22:30:25.841Z,100821.00
2022-12-23T22:32:55.988Z,100809.78
2022-12-23T22:35:28.211Z,100817.34
2022-12-23T22:37:58.495Z,100820.16
2022-12-23T22:40:28.498Z,100825.75
2022-12-23T22:43:00.890Z,100831.72
2022-12-23T22:45:31.416Z,100824.47
2022-12-23T22:48:02.147Z,100818.41
2022-12-23T22:50:32.496Z,100814.78
2022-12-23T22:53:02.736Z,100822.38
2022-12-23T22:55:33.387Z,100824.38
2022-12-23T22:58:05.522Z,100827.97
2022-12-23T23:00:36.399Z,100827.16
2022-12-23T23:03:07.170Z,100819.13
2022-12-23T23:05:37.255Z,100830.34
2022-12-23T23:08:07.975Z,100827.06
2022-12-23T23:10:37.885Z,100824.59
2022-12-23T23:13:10.112Z,100830.53
2022-12-23T23:15:40.409Z,100834.03
2022-12-23T23:18:10.578Z,100835.22
2022-12-23T23:20:40.330Z,100840.34
2022-12-23T23:23:10.935Z,100845.13
2022-12-23T23:25:40.795Z,100841.03
2022-12-23T23:28:13.284Z,100831.00
2022-12-23T23:30:43.740Z,100841.72
2022-12-23T23:33:14.594Z,100842.09
2022-12-23T23:35:44.984Z,100846.88
2022-12-23T23:38:14.823Z,100846.41
2022-12-23T23:40:45.337Z,100845.25
2022-12-23T23:43:17.925Z,100845.25
2022-12-23T23:45:48.383Z,100845.56
2022-12-23T23:48:19.637Z,100846.41
2022-12-23T23:50:50.741Z,100847.22
2022-12-23T23:53:21.173Z,100844.41
2022-12-23T23:55:51.442Z,100839.97
2022-12-23T23:58:23.527Z,100843.94
